Hood Army Air Field Fort Hood(Killeen) US
ICAO: KHLR
IATA: HLR
Category: Medium
Scheduled Services: No

Elevation: 924 ft
TransAlt. 18000 ft.

Airport Communications:
GRAY APP/DEP:120.075
CLNC DEL:22.54
GND:133.85
RANGE CON:30.45
FORT HOOD FLT FLW:143.1
PMSV GRAY METRO:41.2
TWR:119.65

KHLR Zoom In..

Runways:

(A) RW 16 length 3701 ft width 144 ft
---- / hdg 158

(B) RW 34 length 3701 ft width 144 ft
---- / hdg 338

Location; KHLR
Day. 15 / Time. 21.58 Zulu
* Altimeter: 29.92
* Temperature: 37° c. 98.6°f.
* Wind from: 170° Speed 06 kn.
Dewpoint: 18° c.
Visibility: 10 Statute Miles.
Clouds: Few 6500 ft.

KHLR 152158Z AUTO 17006KT 10SM FEW065 37/18 A2992 RMK AO2 SLP118 T03660183


Wind From 170°
Speed 06 kn.

 
 
jpsmedia.com for Web Design worldairports.se 2018   terms of use